createdAt,value
2022-09-04T00:00:07.995Z,101736.09
2022-09-04T00:02:48.485Z,101745.81
2022-09-04T00:05:22.005Z,101742.50
2022-09-04T00:08:04.670Z,101743.03
2022-09-04T00:10:39.777Z,101736.78
2022-09-04T00:13:12.367Z,101748.00
2022-09-04T00:15:45.211Z,101748.75
2022-09-04T00:18:18.155Z,101745.50
2022-09-04T00:20:51.703Z,101748.09
2022-09-04T00:23:25.485Z,101751.22
2022-09-04T00:25:59.346Z,101745.06
2022-09-04T00:28:35.853Z,101758.75
2022-09-04T00:31:14.854Z,101750.78
2022-09-04T00:33:52.751Z,101751.47
2022-09-04T00:36:23.574Z,101751.78
2022-09-04T00:38:57.105Z,101744.97
2022-09-04T00:41:31.020Z,101749.31
2022-09-04T00:44:33.295Z,101752.97
2022-09-04T00:47:27.326Z,101750.25
2022-09-04T00:50:18.963Z,101752.13
2022-09-04T00:53:02.414Z,101745.97
2022-09-04T00:55:55.820Z,101746.09
2022-09-04T00:58:49.487Z,101751.03
2022-09-04T01:01:25.867Z,101748.47
2022-09-04T01:04:24.607Z,101748.03
2022-09-04T01:07:05.979Z,101749.66
2022-09-04T01:09:57.158Z,101750.41
2022-09-04T01:12:36.517Z,101760.31
2022-09-04T01:15:14.596Z,101759.03
2022-09-04T01:17:53.382Z,101757.41
2022-09-04T01:20:32.283Z,101761.94
2022-09-04T01:23:13.473Z,101762.91
2022-09-04T01:25:56.730Z,101762.25
2022-09-04T01:28:31.063Z,101753.00
2022-09-04T01:31:08.465Z,101758.81
2022-09-04T01:33:46.268Z,101758.81
2022-09-04T01:36:22.716Z,101762.50
2022-09-04T01:38:55.043Z,101758.59
2022-09-04T01:41:29.246Z,101753.84
2022-09-04T01:43:57.187Z,101758.50
2022-09-04T01:46:58.158Z,101756.47
2022-09-04T01:49:35.688Z,101758.28
2022-09-04T01:52:36.637Z,101757.31
2022-09-04T01:55:15.168Z,101765.50
2022-09-04T01:58:03.900Z,101759.47
2022-09-04T02:00:39.577Z,101759.81
2022-09-04T02:03:16.140Z,101764.50
2022-09-04T02:05:55.177Z,101756.00
2022-09-04T02:08:36.479Z,101758.81
2022-09-04T02:11:10.084Z,101751.72
2022-09-04T02:13:56.406Z,101758.41
2022-09-04T02:16:35.369Z,101763.03
2022-09-04T02:19:13.432Z,101769.34
2022-09-04T02:21:49.368Z,101764.97
2022-09-04T02:24:25.462Z,101761.41
2022-09-04T02:27:01.297Z,101769.69
2022-09-04T02:29:36.523Z,101768.31
2022-09-04T02:32:12.870Z,101760.34
2022-09-04T02:34:49.261Z,101768.81
2022-09-04T02:37:29.399Z,101777.13
2022-09-04T02:40:11.988Z,101779.34
2022-09-04T02:42:49.066Z,101782.59
2022-09-04T02:45:28.136Z,101778.72
2022-09-04T02:48:04.119Z,101783.88
2022-09-04T02:50:46.219Z,101785.72
2022-09-04T02:53:27.348Z,101780.22
2022-09-04T02:56:10.909Z,101782.91
2022-09-04T02:58:51.270Z,101782.81
2022-09-04T03:01:27.682Z,101789.25
2022-09-04T03:04:03.899Z,101790.00
2022-09-04T03:06:49.505Z,101790.47
2022-09-04T03:09:25.049Z,101794.31
2022-09-04T03:12:01.580Z,101796.78
2022-09-04T03:14:37.217Z,101807.66
2022-09-04T03:17:14.657Z,101805.63
2022-09-04T03:19:51.947Z,101808.03
2022-09-04T03:22:25.252Z,101802.38
2022-09-04T03:25:26.692Z,101810.25
2022-09-04T03:27:54.581Z,101819.47
2022-09-04T03:30:22.575Z,101828.53
2022-09-04T03:33:03.009Z,101815.34
2022-09-04T03:35:41.052Z,101820.94
2022-09-04T03:38:20.784Z,101821.59
2022-09-04T03:41:03.207Z,101814.69
2022-09-04T03:43:51.109Z,101814.81
2022-09-04T03:46:30.800Z,101827.72
2022-09-04T03:49:16.584Z,101823.16
2022-09-04T03:52:00.481Z,101831.44
2022-09-04T03:54:45.042Z,101829.66
2022-09-04T03:57:27.454Z,101824.41
2022-09-04T04:00:06.168Z,101842.66
2022-09-04T04:02:48.133Z,101833.44
2022-09-04T04:05:37.232Z,101838.81
2022-09-04T04:08:31.103Z,101838.31
2022-09-04T04:11:10.444Z,101840.13
2022-09-04T04:13:55.339Z,101845.28
2022-09-04T04:16:40.870Z,101850.91
2022-09-04T04:19:23.862Z,101855.41
2022-09-04T04:22:05.505Z,101854.84
2022-09-04T04:24:57.586Z,101854.97
2022-09-04T04:27:44.360Z,101861.28
2022-09-04T04:30:15.534Z,101863.63
2022-09-04T04:33:01.541Z,101871.38
2022-09-04T04:35:36.779Z,101872.25
2022-09-04T04:38:19.531Z,101882.50
2022-09-04T04:41:06.382Z,101873.97
2022-09-04T04:43:47.516Z,101881.84
2022-09-04T04:46:20.494Z,101881.63
2022-09-04T04:49:05.495Z,101884.31
2022-09-04T04:51:51.670Z,101884.16
2022-09-04T04:54:33.160Z,101884.72
2022-09-04T04:57:09.104Z,101888.66
2022-09-04T04:59:47.849Z,101885.59
2022-09-04T05:02:24.012Z,101891.84
2022-09-04T05:05:13.997Z,101888.50
2022-09-04T05:07:49.397Z,101884.06
2022-09-04T05:10:24.258Z,101890.78
2022-09-04T05:13:03.208Z,101896.56
2022-09-04T05:15:58.109Z,101894.66
2022-09-04T05:18:33.101Z,101901.94
2022-09-04T05:21:10.241Z,101902.88
2022-09-04T05:23:45.017Z,101905.84
2022-09-04T05:26:23.478Z,101910.84
2022-09-04T05:28:59.541Z,101911.28
2022-09-04T05:31:38.390Z,101920.44
2022-09-04T05:34:12.779Z,101922.63
2022-09-04T05:36:51.564Z,101930.03
2022-09-04T05:39:27.725Z,101922.91
2022-09-04T05:42:07.992Z,101926.16
2022-09-04T05:44:46.343Z,101927.69
2022-09-04T05:47:30.331Z,101934.22
2022-09-04T05:50:14.158Z,101935.59
2022-09-04T05:52:58.072Z,101932.38
2022-09-04T05:55:52.688Z,101935.94
2022-09-04T05:58:46.133Z,101939.00
2022-09-04T06:01:29.942Z,101933.44
2022-09-04T06:04:25.940Z,101930.69
2022-09-04T06:07:06.670Z,101936.06
2022-09-04T06:09:49.458Z,101936.47
2022-09-04T06:12:36.699Z,101934.16
2022-09-04T06:15:16.050Z,101935.91
2022-09-04T06:18:16.679Z,101936.25
2022-09-04T06:20:59.364Z,101940.47
2022-09-04T06:23:51.349Z,101947.56
2022-09-04T06:26:43.722Z,101947.28
2022-09-04T06:29:41.153Z,101947.81
2022-09-04T06:32:32.151Z,101942.25
2022-09-04T06:35:27.097Z,101937.75
2022-09-04T06:38:09.111Z,101950.56
2022-09-04T06:40:49.793Z,101944.72
2022-09-04T06:43:29.671Z,101943.53
2022-09-04T06:46:09.783Z,101963.63
2022-09-04T06:48:51.154Z,101953.00
2022-09-04T06:51:32.444Z,101952.91
2022-09-04T06:54:11.331Z,101948.22
2022-09-04T06:57:05.858Z,101950.50
2022-09-04T06:59:55.072Z,101950.38
2022-09-04T07:02:45.015Z,101949.69
2022-09-04T07:05:25.392Z,101956.38
2022-09-04T07:08:02.692Z,101951.75
2022-09-04T07:10:34.660Z,101970.53
2022-09-04T07:13:29.153Z,101969.16
2022-09-04T07:16:10.805Z,101961.53
2022-09-04T07:18:55.525Z,101960.84
2022-09-04T07:21:33.562Z,101954.44
2022-09-04T07:24:07.191Z,101961.88
2022-09-04T07:26:41.002Z,101952.31
2022-09-04T07:29:33.313Z,101952.44
2022-09-04T07:32:08.755Z,101962.16
2022-09-04T07:34:45.041Z,101955.31
2022-09-04T07:37:27.358Z,101961.47
2022-09-04T07:40:08.347Z,101966.44
2022-09-04T07:42:42.988Z,101977.22
2022-09-04T07:45:23.212Z,101986.47
2022-09-04T07:47:59.302Z,101985.97
2022-09-04T07:50:35.328Z,101990.56
2022-09-04T07:53:20.215Z,101981.16
2022-09-04T07:55:50.892Z,101991.41
2022-09-04T07:58:33.195Z,101988.59
2022-09-04T08:01:24.351Z,101995.81
2022-09-04T08:04:10.219Z,101991.97
2022-09-04T08:06:45.706Z,101991.44
2022-09-04T08:09:33.693Z,101991.91
2022-09-04T08:12:44.825Z,102004.66
2022-09-04T08:15:20.012Z,101996.38
2022-09-04T08:18:11.736Z,102005.88
2022-09-04T08:20:46.929Z,102004.13
2022-09-04T08:23:41.588Z,102007.28
2022-09-04T08:26:21.044Z,102010.75
2022-09-04T08:29:15.844Z,102008.22
2022-09-04T08:31:52.548Z,102015.97
2022-09-04T08:34:47.735Z,102026.28
2022-09-04T08:37:26.047Z,102023.41
2022-09-04T08:40:11.990Z,102016.44
2022-09-04T08:43:16.506Z,102021.06
2022-09-04T08:46:29.058Z,102023.78
2022-09-04T08:49:46.425Z,102027.72
2022-09-04T08:52:45.123Z,102021.69
2022-09-04T08:55:41.224Z,102022.41
2022-09-04T08:58:47.615Z,102017.16
2022-09-04T09:02:03.505Z,102018.63
2022-09-04T09:05:18.634Z,102016.19
2022-09-04T09:08:17.121Z,102012.34
2022-09-04T09:11:03.754Z,102014.91
2022-09-04T09:14:01.304Z,102028.03
2022-09-04T09:16:43.838Z,102021.06
2022-09-04T09:19:33.978Z,102011.06
2022-09-04T09:22:50.311Z,102016.97
2022-09-04T09:25:21.251Z,102018.16
2022-09-04T09:28:24.772Z,102014.81
2022-09-04T09:31:17.083Z,102004.06
2022-09-04T09:34:15.374Z,102011.63
2022-09-04T09:37:17.913Z,102010.00
2022-09-04T09:40:14.313Z,102011.94
2022-09-04T09:43:00.175Z,102021.44
2022-09-04T09:46:10.701Z,102009.94
2022-09-04T09:49:14.797Z,102017.50
2022-09-04T09:52:09.629Z,102020.59
2022-09-04T09:55:04.543Z,102025.78
2022-09-04T09:57:55.810Z,102020.25
2022-09-04T10:00:27.644Z,102008.78
2022-09-04T10:03:35.120Z,102006.22
2022-09-04T10:06:34.108Z,102007.34
2022-09-04T10:09:31.220Z,102005.59
2022-09-04T10:12:41.028Z,102015.28
2022-09-04T10:15:37.656Z,102013.38
2022-09-04T10:18:47.372Z,101996.63
2022-09-04T10:22:07.767Z,102006.94
2022-09-04T10:25:11.143Z,102003.09
2022-09-04T10:28:26.030Z,102001.88
2022-09-04T10:31:30.286Z,102008.34
2022-09-04T10:34:24.131Z,102002.31
2022-09-04T10:37:02.777Z,102000.31
2022-09-04T10:40:04.899Z,102003.16
2022-09-04T10:42:43.463Z,102007.16
2022-09-04T10:45:22.247Z,102008.78
2022-09-04T10:48:32.187Z,102009.81
2022-09-04T10:51:22.316Z,102006.41
2022-09-04T10:54:16.896Z,102008.72
2022-09-04T10:56:55.298Z,102001.56
2022-09-04T10:59:48.861Z,102009.91
2022-09-04T11:02:34.929Z,102003.56
2022-09-04T11:05:39.519Z,102010.97
2022-09-04T11:08:27.585Z,102000.44
2022-09-04T11:11:18.098Z,102006.63
2022-09-04T11:14:30.905Z,102010.88
2022-09-04T11:17:30.656Z,102005.00
2022-09-04T11:20:25.519Z,102006.41
2022-09-04T11:23:32.761Z,102003.63
2022-09-04T11:26:47.780Z,101994.75
2022-09-04T11:29:56.118Z,101990.38
2022-09-04T11:33:02.978Z,101996.38
2022-09-04T11:35:56.169Z,101997.47
2022-09-04T11:39:08.422Z,101986.56
2022-09-04T11:42:06.007Z,101986.47
2022-09-04T11:44:52.187Z,101979.22
2022-09-04T11:47:44.084Z,101985.16
2022-09-04T11:50:24.272Z,101977.50
2022-09-04T11:53:27.548Z,101971.22
2022-09-04T11:56:12.782Z,101981.16
2022-09-04T11:59:13.072Z,101978.06
2022-09-04T12:02:03.834Z,101975.88
2022-09-04T12:05:04.945Z,101981.56
2022-09-04T12:07:49.579Z,101978.38
2022-09-04T12:10:56.846Z,101988.59
2022-09-04T12:13:40.119Z,101977.25
2022-09-04T12:16:49.157Z,101978.22
2022-09-04T12:19:51.688Z,101981.63
2022-09-04T12:22:52.504Z,101979.97
2022-09-04T12:25:53.964Z,101988.75
2022-09-04T12:28:45.173Z,101980.28
2022-09-04T12:31:34.269Z,101981.56
2022-09-04T12:34:28.068Z,101983.16
2022-09-04T12:37:27.584Z,101975.84
2022-09-04T12:40:25.182Z,101974.59
2022-09-04T12:43:02.744Z,101982.63
2022-09-04T12:45:44.545Z,101983.81
2022-09-04T12:48:26.299Z,101970.19
2022-09-04T12:51:01.969Z,101969.94
2022-09-04T12:53:54.676Z,101964.91
2022-09-04T12:56:31.606Z,101969.13
2022-09-04T12:59:19.129Z,101976.19
2022-09-04T13:02:01.298Z,101973.47
2022-09-04T13:04:39.296Z,101969.66
2022-09-04T13:07:29.590Z,101975.47
2022-09-04T13:10:08.978Z,101982.94
2022-09-04T13:12:46.443Z,101978.50
2022-09-04T13:15:24.388Z,101976.19
2022-09-04T13:18:06.950Z,101979.78
2022-09-04T13:20:44.003Z,101976.88
2022-09-04T13:23:35.289Z,101973.34
2022-09-04T13:26:29.776Z,101977.94
2022-09-04T13:29:12.408Z,101976.06
2022-09-04T13:31:54.992Z,101969.38
2022-09-04T13:38:31.215Z,101970.22
2022-09-04T13:41:30.178Z,101966.13
2022-09-04T13:44:30.502Z,101977.78
2022-09-04T13:47:04.585Z,101969.94
2022-09-04T13:49:40.050Z,101970.38
2022-09-04T13:52:13.410Z,101971.50
2022-09-04T13:54:48.123Z,101972.31
2022-09-04T13:57:21.034Z,101984.06
2022-09-04T13:59:51.519Z,101980.97
2022-09-04T14:02:24.552Z,101985.06
2022-09-04T14:04:57.601Z,101977.84
2022-09-04T14:07:29.370Z,101985.22
2022-09-04T14:10:04.288Z,101977.09
2022-09-04T14:13:07.040Z,101988.69
2022-09-04T14:16:04.119Z,101979.25
2022-09-04T14:18:50.807Z,101980.81
2022-09-04T14:21:34.712Z,101977.72
2022-09-04T14:24:12.104Z,101983.66
2022-09-04T14:27:11.385Z,101990.25
2022-09-04T14:29:54.240Z,101987.97
2022-09-04T14:32:32.274Z,101991.38
2022-09-04T14:35:10.383Z,101993.44
2022-09-04T14:37:54.159Z,101997.38
2022-09-04T14:40:28.102Z,101988.66
2022-09-04T14:43:04.626Z,101988.59
2022-09-04T14:45:55.342Z,101995.56
2022-09-04T14:48:24.314Z,101999.19
2022-09-04T14:50:54.766Z,101995.75
2022-09-04T14:53:27.303Z,101996.63
2022-09-04T14:56:18.657Z,102000.91
2022-09-04T14:58:55.214Z,101992.31
2022-09-04T15:01:25.420Z,101986.13
2022-09-04T15:04:00.158Z,101995.38
2022-09-04T15:06:41.032Z,101992.44
2022-09-04T15:09:23.269Z,102001.13
2022-09-04T15:12:08.905Z,101992.81
2022-09-04T15:14:46.733Z,101995.63
2022-09-04T15:17:24.371Z,101987.47
2022-09-04T15:19:58.754Z,101994.59
2022-09-04T15:22:32.674Z,101990.88
2022-09-04T15:25:05.626Z,101987.28
2022-09-04T15:27:43.387Z,101991.94
2022-09-04T15:30:20.702Z,101987.50
2022-09-04T15:32:50.498Z,101989.44
2022-09-04T15:35:24.320Z,101989.22
2022-09-04T15:38:07.372Z,101993.16
2022-09-04T15:40:39.083Z,101991.81
2022-09-04T15:43:18.699Z,101989.72
2022-09-04T15:45:58.779Z,101994.44
2022-09-04T15:48:37.980Z,101993.56
2022-09-04T15:51:19.085Z,101999.41
2022-09-04T15:53:54.111Z,102005.94
2022-09-04T15:56:34.995Z,102001.94
2022-09-04T15:59:12.168Z,101999.94
2022-09-04T16:01:50.905Z,101991.63
2022-09-04T16:04:29.567Z,101999.97
2022-09-04T16:07:20.658Z,101991.69
2022-09-04T16:09:53.485Z,101984.97
2022-09-04T16:12:25.086Z,101989.81
2022-09-04T16:14:59.993Z,101995.44
2022-09-04T16:17:34.669Z,101999.50
2022-09-04T16:20:08.350Z,101998.34
2022-09-04T16:22:44.602Z,101995.34
2022-09-04T16:25:26.420Z,102008.56
2022-09-04T16:28:02.344Z,102005.66
2022-09-04T16:30:35.180Z,102004.22
2022-09-04T16:33:20.540Z,102010.44
2022-09-04T16:36:00.107Z,102004.13
2022-09-04T16:38:33.395Z,102011.59
2022-09-04T16:41:10.996Z,102008.59
2022-09-04T16:43:39.463Z,102007.59
2022-09-04T16:46:13.628Z,102014.44
2022-09-04T16:48:53.574Z,102004.00
2022-09-04T16:51:40.020Z,102004.34
2022-09-04T16:54:18.287Z,102008.75
2022-09-04T16:56:50.880Z,102012.38
2022-09-04T16:59:26.140Z,102018.88
2022-09-04T17:02:01.776Z,102019.44
2022-09-04T17:04:40.131Z,102017.03
2022-09-04T17:07:19.121Z,102017.41
2022-09-04T17:09:56.680Z,102020.75
2022-09-04T17:12:35.013Z,102021.34
2022-09-04T17:15:14.258Z,102021.22
2022-09-04T17:17:43.381Z,102019.94
2022-09-04T17:20:23.364Z,102024.84
2022-09-04T17:28:58.634Z,102023.91
2022-09-04T17:29:10.937Z,102029.94
2022-09-04T17:29:29.622Z,102027.97
2022-09-04T17:31:53.838Z,102027.03
2022-09-04T17:40:42.888Z,102034.94
2022-09-04T17:40:51.619Z,102038.59
2022-09-04T17:40:54.775Z,102034.50
2022-09-04T17:43:24.177Z,102036.84
2022-09-04T17:46:07.695Z,102044.59
2022-09-04T17:48:41.958Z,102043.00
2022-09-04T17:51:18.058Z,102046.91
2022-09-04T17:53:53.416Z,102057.06
2022-09-04T17:56:27.574Z,102053.34
2022-09-04T17:59:03.383Z,102055.81
2022-09-04T18:01:37.663Z,102051.81
2022-09-04T18:04:22.622Z,102059.41
2022-09-04T18:07:00.246Z,102061.41
2022-09-04T18:09:38.020Z,102066.56
2022-09-04T18:12:12.757Z,102067.00
2022-09-04T18:14:53.148Z,102071.88
2022-09-04T18:17:45.849Z,102070.97
2022-09-04T18:20:24.280Z,102073.69
2022-09-04T18:23:18.172Z,102075.69
2022-09-04T18:25:52.384Z,102087.84
2022-09-04T18:28:27.926Z,102088.69
2022-09-04T18:37:08.540Z,102086.13
2022-09-04T18:37:21.334Z,102087.94
2022-09-04T18:37:44.085Z,102087.75
2022-09-04T18:40:09.451Z,102092.22
2022-09-04T18:50:20.387Z,102096.94
2022-09-04T18:50:33.640Z,102108.59
2022-09-04T18:50:53.242Z,102097.75
2022-09-04T18:51:30.538Z,102111.69
2022-09-04T18:54:04.143Z,102110.72
2022-09-04T18:56:37.094Z,102111.00
2022-09-04T18:59:12.246Z,102118.22
2022-09-04T19:01:44.315Z,102113.66
2022-09-04T19:04:36.174Z,102114.31
2022-09-04T19:07:08.300Z,102115.03
2022-09-04T19:09:56.940Z,102106.41
2022-09-04T19:12:33.648Z,102112.81
2022-09-04T19:15:36.269Z,102111.09
2022-09-04T19:18:14.303Z,102114.88
2022-09-04T19:20:54.180Z,102123.75
2022-09-04T19:23:30.342Z,102120.13
2022-09-04T19:26:03.215Z,102123.66
2022-09-04T19:28:50.913Z,102120.22
2022-09-04T19:31:32.883Z,102126.38
2022-09-04T19:34:08.815Z,102129.53
2022-09-04T19:36:43.775Z,102124.75
2022-09-04T19:45:55.600Z,102133.88
2022-09-04T19:45:59.171Z,102132.16
2022-09-04T19:46:26.240Z,102138.63
2022-09-04T19:48:21.460Z,102145.06
2022-09-04T19:53:22.657Z,102137.38
2022-09-04T19:53:55.159Z,102141.34
2022-09-04T19:56:32.615Z,102142.09
2022-09-04T19:59:27.256Z,102137.06
2022-09-04T20:01:58.217Z,102130.03
2022-09-04T20:04:41.237Z,102141.75
2022-09-04T20:07:14.168Z,102141.41
2022-09-04T20:09:47.175Z,102138.81
2022-09-04T20:12:22.171Z,102138.09
2022-09-04T20:14:55.251Z,102143.06
2022-09-04T20:17:45.891Z,102143.94
2022-09-04T20:20:21.407Z,102152.09
2022-09-04T20:22:53.293Z,102144.19
2022-09-04T20:25:46.663Z,102156.53
2022-09-04T20:28:30.298Z,102152.13
2022-09-04T20:31:28.736Z,102149.63
2022-09-04T20:34:16.755Z,102149.66
2022-09-04T20:36:51.241Z,102158.53
2022-09-04T20:39:24.704Z,102158.44
2022-09-04T20:41:59.573Z,102165.94
2022-09-04T20:44:51.117Z,102167.78
2022-09-04T20:52:45.303Z,102171.25
2022-09-04T20:52:58.849Z,102172.47
2022-09-04T20:53:30.708Z,102168.88
2022-09-04T20:56:18.856Z,102177.00
2022-09-04T21:03:05.247Z,102177.00
2022-09-04T21:03:18.655Z,102173.56
2022-09-04T21:05:33.784Z,102178.03
2022-09-04T21:08:09.111Z,102180.72
2022-09-04T21:10:48.346Z,102191.91
2022-09-04T21:13:22.523Z,102192.66
2022-09-04T21:16:00.257Z,102188.34
2022-09-04T21:19:28.192Z,102189.94
2022-09-04T21:22:14.073Z,102197.19
2022-09-04T21:25:20.053Z,102204.59
2022-09-04T21:28:07.329Z,102210.97
2022-09-04T21:31:10.501Z,102210.09
2022-09-04T21:33:48.366Z,102212.06
2022-09-04T21:36:26.343Z,102214.53
2022-09-04T21:39:38.576Z,102221.41
2022-09-04T21:42:24.429Z,102220.03
2022-09-04T21:45:34.456Z,102225.34
2022-09-04T21:48:33.042Z,102220.16
2022-09-04T21:51:28.773Z,102227.22
2022-09-04T21:54:38.338Z,102227.34
2022-09-04T22:02:27.020Z,102229.03
2022-09-04T22:02:46.278Z,102225.59
2022-09-04T22:03:36.233Z,102237.91
2022-09-04T22:06:29.281Z,102236.28
2022-09-04T22:13:34.659Z,102239.53
2022-09-04T22:13:42.620Z,102235.47
2022-09-04T22:15:00.519Z,102236.94
2022-09-04T22:17:54.365Z,102234.97
2022-09-04T22:20:42.261Z,102223.41
2022-09-04T22:23:50.961Z,102227.44
2022-09-04T22:26:45.414Z,102226.75
2022-09-04T22:29:40.045Z,102225.38
2022-09-04T22:32:40.389Z,102225.63
2022-09-04T22:35:44.543Z,102222.28
2022-09-04T22:38:35.040Z,102219.44
2022-09-04T22:41:22.525Z,102217.25
2022-09-04T22:44:00.848Z,102219.44
2022-09-04T22:46:43.788Z,102219.94
2022-09-04T22:49:33.855Z,102224.13
2022-09-04T22:52:35.712Z,102232.38
2022-09-04T22:55:39.696Z,102219.94
2022-09-04T22:58:19.986Z,102222.75
2022-09-04T23:01:05.124Z,102227.69
2022-09-04T23:03:47.346Z,102234.50
2022-09-04T23:10:26.774Z,102225.75
2022-09-04T23:13:58.088Z,102226.63
2022-09-04T23:13:59.988Z,102232.53
2022-09-04T23:16:34.353Z,102234.88
2022-09-04T23:20:50.189Z,102231.53
2022-09-04T23:26:47.170Z,102230.28
2022-09-04T23:26:48.658Z,102233.59
2022-09-04T23:28:39.644Z,102232.97
2022-09-04T23:31:39.648Z,102231.75
2022-09-04T23:34:26.408Z,102232.34
2022-09-04T23:37:10.479Z,102229.75
2022-09-04T23:40:20.895Z,102225.22
2022-09-04T23:43:07.561Z,102227.38
2022-09-04T23:46:08.130Z,102219.41
2022-09-04T23:49:11.160Z,102215.31
2022-09-04T23:51:46.689Z,102216.63
2022-09-04T23:54:49.144Z,102222.84
2022-09-04T23:57:27.552Z,102218.47
